Time;durP1;ratioP1;P1;durP2;ratioP2;P2;SDS_P1;SDS_P2;PMS_P1;PMS_P2;Temp;Humidity;BMP_temperature;BMP_pressure;BME280_temperature;BME280_humidity;BME280_pressure;Samples;Min_cycle;Max_cycle;Signal;HPM_P1;HPM_P2
2023/03/07 00:00:36;;;;;;;15.23;12.37;;;4.10;74.50;;;;;;5083044;28;20206;-79
2023/03/07 00:03:01;;;;;;;13.00;11.33;;;4.10;75.00;;;;;;5101187;28;20203;-79
2023/03/07 00:05:27;;;;;;;14.67;12.30;;;4.10;75.10;;;;;;5100769;28;20270;-80
2023/03/07 00:07:53;;;;;;;14.43;12.03;;;4.20;74.00;;;;;;5101067;28;20261;-79
2023/03/07 00:10:18;;;;;;;14.77;11.53;;;4.00;75.00;;;;;;5101238;28;20229;-81
2023/03/07 00:12:44;;;;;;;13.80;12.00;;;4.10;74.50;;;;;;5100390;28;20211;-81
2023/03/07 00:15:10;;;;;;;15.83;11.87;;;4.00;74.80;;;;;;5101317;28;20232;-82
2023/03/07 00:17:37;;;;;;;11.43;10.20;;;4.00;74.50;;;;;;5100832;28;20332;-79
2023/03/07 00:20:06;;;;;;;13.87;11.60;;;4.10;73.80;;;;;;5100972;28;20175;-81
2023/03/07 00:22:36;;;;;;;15.03;12.03;;;4.00;73.90;;;;;;5100628;28;20214;-80
2023/03/07 00:25:02;;;;;;;16.53;12.67;;;4.10;74.00;;;;;;5099264;28;20269;-80
2023/03/07 00:27:30;;;;;;;13.97;11.27;;;4.00;74.40;;;;;;5100393;28;20183;-80
2023/03/07 00:29:56;;;;;;;14.57;11.73;;;4.00;74.10;;;;;;5082420;28;20194;-80
2023/03/07 00:32:22;;;;;;;14.13;12.00;;;4.00;74.30;;;;;;5099886;28;20212;-80
2023/03/07 00:34:48;;;;;;;14.77;12.17;;;4.00;74.00;;;;;;5101702;28;20186;-79
2023/03/07 00:37:14;;;;;;;19.00;11.80;;;4.00;73.80;;;;;;5100465;28;20183;-80
2023/03/07 00:39:40;;;;;;;15.03;11.50;;;4.00;74.10;;;;;;5100903;28;20594;-79
2023/03/07 00:42:06;;;;;;;14.23;11.33;;;4.00;74.50;;;;;;5099726;28;20190;-80
2023/03/07 00:44:32;;;;;;;14.37;11.87;;;4.00;73.70;;;;;;5099905;28;20677;-79
2023/03/07 00:46:58;;;;;;;14.70;11.00;;;4.00;73.80;;;;;;5099444;28;20210;-79
2023/03/07 00:49:23;;;;;;;13.70;11.33;;;4.10;72.90;;;;;;5099035;28;20175;-80
2023/03/07 00:51:49;;;;;;;16.03;11.93;;;4.00;73.50;;;;;;5099538;28;20216;-80
2023/03/07 00:54:15;;;;;;;15.27;11.53;;;3.90;73.80;;;;;;5100971;28;20280;-80
2023/03/07 00:56:41;;;;;;;14.63;11.70;;;3.90;74.00;;;;;;5100699;28;20191;-80
2023/03/07 00:59:07;;;;;;;16.90;12.03;;;4.00;72.70;;;;;;5100591;28;20560;-80
2023/03/07 01:01:33;;;;;;;16.80;11.60;;;4.00;72.70;;;;;;5100118;28;20186;-81
2023/03/07 01:03:59;;;;;;;13.97;12.10;;;4.10;72.90;;;;;;5101237;28;20198;-80
2023/03/07 01:06:27;;;;;;;14.33;11.97;;;4.00;73.40;;;;;;5099789;28;20196;-81
2023/03/07 01:08:55;;;;;;;14.00;12.43;;;4.00;73.10;;;;;;5099799;28;20202;-79
2023/03/07 01:11:21;;;;;;;12.60;11.03;;;4.10;72.30;;;;;;5099347;28;20209;-79
2023/03/07 01:13:46;;;;;;;13.50;11.20;;;4.10;73.00;;;;;;5099312;28;20191;-80
2023/03/07 01:16:15;;;;;;;13.40;10.43;;;4.10;72.70;;;;;;5099174;28;20170;-80
2023/03/07 01:18:41;;;;;;;15.77;11.63;;;4.10;73.30;;;;;;5100622;28;20167;-81
2023/03/07 01:21:16;;;;;;;12.93;11.30;;;4.00;74.40;;;;;;5099461;28;20675;-81
2023/03/07 01:23:41;;;;;;;15.03;11.90;;;4.10;75.30;;;;;;5098432;28;20193;-80
2023/03/07 01:26:14;;;;;;;14.90;11.57;;;4.10;75.70;;;;;;5098139;28;20178;-80
2023/03/07 01:28:40;;;;;;;14.83;12.40;;;4.00;76.50;;;;;;5087459;28;20560;-81
2023/03/07 01:31:07;;;;;;;14.67;11.37;;;3.80;78.10;;;;;;5080869;28;20207;-81
2023/03/07 01:33:33;;;;;;;14.90;11.67;;;3.90;78.40;;;;;;5078604;28;20215;-80
2023/03/07 01:35:59;;;;;;;15.43;12.37;;;3.80;80.40;;;;;;5078503;28;20180;-80
2023/03/07 01:38:24;;;;;;;15.27;12.67;;;3.80;81.90;;;;;;5077990;28;20438;-79
2023/03/07 01:40:50;;;;;;;17.13;13.23;;;3.70;83.40;;;;;;5078564;28;20185;-80
2023/03/07 01:43:18;;;;;;;19.00;13.90;;;3.60;85.30;;;;;;5078835;28;20192;-80
2023/03/07 01:45:50;;;;;;;18.53;13.47;;;3.50;87.50;;;;;;5077746;28;20384;-80
2023/03/07 01:48:16;;;;;;;14.03;12.37;;;3.50;89.60;;;;;;5061869;28;20299;-80
2023/03/07 01:50:43;;;;;;;17.30;13.07;;;3.40;90.60;;;;;;5098914;28;20499;-80
2023/03/07 01:53:10;;;;;;;19.47;13.53;;;3.40;90.60;;;;;;5097986;28;20214;-79
2023/03/07 01:55:36;;;;;;;17.80;13.83;;;3.40;91.80;;;;;;5098477;28;20645;-80
2023/03/07 01:58:13;;;;;;;17.10;13.13;;;3.40;93.00;;;;;;5098542;28;20183;-80
2023/03/07 02:00:41;;;;;;;17.23;11.90;;;3.40;91.40;;;;;;5098990;28;20653;-80
2023/03/07 02:03:09;;;;;;;15.33;12.77;;;3.50;94.10;;;;;;5098489;28;20622;-80
2023/03/07 02:05:56;;;;;;;16.10;13.33;;;3.50;93.90;;;;;;5098623;28;20179;-78
2023/03/07 02:08:25;;;;;;;15.93;12.50;;;3.40;95.20;;;;;;5091488;23;20275;-81
2023/03/07 02:10:51;;;;;;;14.87;13.13;;;3.40;97.30;;;;;;5037671;28;20266;-81
2023/03/07 02:13:17;;;;;;;17.97;13.50;;;3.40;96.10;;;;;;5036585;28;20201;-83
2023/03/07 02:15:43;;;;;;;15.30;13.13;;;3.20;97.10;;;;;;5036584;28;20184;-81
2023/03/07 02:18:12;;;;;;;17.40;13.10;;;3.20;97.70;;;;;;5037029;28;20200;-81
2023/03/07 02:21:08;;;;;;;15.33;13.20;;;3.20;97.60;;;;;;5036715;28;20191;-81
2023/03/07 02:24:01;;;;;;;16.83;13.50;;;3.20;97.30;;;;;;5035902;28;20192;-83
2023/03/07 02:26:46;;;;;;;17.20;13.27;;;3.10;96.30;;;;;;5036755;28;20540;-81
2023/03/07 02:29:12;;;;;;;14.93;11.50;;;3.20;95.70;;;;;;5036459;28;20255;-81
2023/03/07 02:31:38;;;;;;;17.53;12.60;;;3.20;95.50;;;;;;5035187;28;20262;-82
2023/03/07 02:34:17;;;;;;;17.53;12.53;;;3.20;94.80;;;;;;5035775;28;20181;-81
2023/03/07 02:36:43;;;;;;;14.67;12.73;;;3.30;96.80;;;;;;5035254;28;20199;-81
2023/03/07 02:39:09;;;;;;;15.60;13.20;;;3.20;95.90;;;;;;5035663;28;20620;-81
2023/03/07 02:41:38;;;;;;;15.33;12.57;;;3.20;96.70;;;;;;5035376;28;20263;-79
2023/03/07 02:44:03;;;;;;;15.87;12.87;;;3.20;96.00;;;;;;5035351;28;20181;-81
2023/03/07 02:46:29;;;;;;;18.10;12.67;;;3.20;97.10;;;;;;5040305;28;20184;-82
2023/03/07 02:48:55;;;;;;;15.23;12.23;;;3.20;96.20;;;;;;5046637;28;20224;-82
2023/03/07 02:51:20;;;;;;;17.83;12.83;;;3.20;96.30;;;;;;5047480;28;20208;-81
2023/03/07 02:53:46;;;;;;;16.13;12.87;;;3.30;95.10;;;;;;5045428;28;20204;-83
2023/03/07 02:56:12;;;;;;;14.07;12.57;;;3.30;95.00;;;;;;5051040;28;20177;-83
2023/03/07 02:58:37;;;;;;;16.30;12.67;;;3.20;93.10;;;;;;5053286;28;20200;-83
2023/03/07 03:01:03;;;;;;;15.73;13.17;;;3.20;94.80;;;;;;5056726;28;20183;-80
2023/03/07 03:03:29;;;;;;;15.27;12.80;;;3.20;92.10;;;;;;5040917;28;20171;-83
2023/03/07 03:05:54;;;;;;;17.10;12.87;;;3.30;92.50;;;;;;5051156;28;20256;-82
2023/03/07 03:08:20;;;;;;;14.77;12.80;;;3.30;89.80;;;;;;5036633;28;20579;-83
2023/03/07 03:10:50;;;;;;;15.40;12.20;;;3.30;90.50;;;;;;5036652;28;20211;-83
2023/03/07 03:13:16;;;;;;;14.47;12.50;;;3.30;90.10;;;;;;5035936;28;20177;-82
2023/03/07 03:15:41;;;;;;;15.53;13.57;;;3.40;89.10;;;;;;5036294;28;20776;-82
2023/03/07 03:18:07;;;;;;;13.17;11.77;;;3.40;86.60;;;;;;5035126;28;20209;-81
2023/03/07 03:20:33;;;;;;;14.97;12.43;;;3.40;88.60;;;;;;5034896;28;20185;-81
2023/03/07 03:22:58;;;;;;;14.23;11.90;;;3.40;88.60;;;;;;5036362;28;20188;-83
2023/03/07 03:25:25;;;;;;;15.90;12.00;;;3.50;88.20;;;;;;5036379;28;20200;-82
2023/03/07 03:27:51;;;;;;;15.13;12.30;;;3.60;87.90;;;;;;5018164;28;20237;-80
2023/03/07 03:30:17;;;;;;;15.47;11.90;;;3.50;88.70;;;;;;5036339;28;20665;-84
2023/03/07 03:32:43;;;;;;;14.33;12.40;;;3.50;88.30;;;;;;5037918;28;20197;-82
2023/03/07 03:35:09;;;;;;;16.50;12.50;;;3.50;88.50;;;;;;5039740;28;20177;-84
2023/03/07 03:37:35;;;;;;;15.67;12.07;;;3.50;88.00;;;;;;5038871;28;20306;-83
2023/03/07 03:40:00;;;;;;;15.40;12.53;;;3.40;88.20;;;;;;5038445;28;20846;-82
2023/03/07 03:42:28;;;;;;;16.23;12.67;;;3.40;88.20;;;;;;5039891;28;20188;-82
2023/03/07 03:44:53;;;;;;;14.60;11.70;;;3.40;87.50;;;;;;5039544;28;20195;-81
2023/03/07 03:47:19;;;;;;;14.50;12.43;;;3.50;88.80;;;;;;5040054;28;20180;-83
2023/03/07 03:49:45;;;;;;;19.33;11.43;;;3.50;87.40;;;;;;5039822;28;20177;-82
2023/03/07 03:52:10;;;;;;;13.80;11.27;;;3.50;87.80;;;;;;5039503;28;20200;-82
2023/03/07 03:54:36;;;;;;;15.20;12.70;;;3.40;88.30;;;;;;5039516;28;20184;-83
2023/03/07 03:57:02;;;;;;;13.50;11.87;;;3.40;87.60;;;;;;5039412;28;20173;-80
2023/03/07 03:59:27;;;;;;;13.30;11.90;;;3.50;87.10;;;;;;5040245;28;20208;-82
2023/03/07 04:01:53;;;;;;;15.10;11.67;;;3.40;87.50;;;;;;5040759;28;20176;-81
2023/03/07 04:04:20;;;;;;;15.27;11.73;;;3.40;86.70;;;;;;5039777;28;20244;-83
2023/03/07 04:06:47;;;;;;;19.07;11.80;;;3.30;87.40;;;;;;5037771;28;20242;-81
2023/03/07 04:09:12;;;;;;;15.40;11.37;;;3.40;85.90;;;;;;5037832;28;20288;-82
2023/03/07 04:11:38;;;;;;;13.30;11.57;;;3.50;85.50;;;;;;5038024;28;20304;-80
2023/03/07 04:14:04;;;;;;;14.57;11.53;;;3.40;86.40;;;;;;5051008;28;20185;-82
2023/03/07 04:16:29;;;;;;;13.63;11.13;;;3.40;85.70;;;;;;5042492;28;20173;-83
2023/03/07 04:18:56;;;;;;;12.67;11.37;;;3.50;84.70;;;;;;5038454;28;20239;-82
2023/03/07 04:21:22;;;;;;;13.13;11.43;;;3.40;84.20;;;;;;5038905;28;20704;-84
2023/03/07 04:23:49;;;;;;;14.03;10.60;;;3.40;84.00;;;;;;5037854;28;20273;-84
2023/03/07 04:26:15;;;;;;;12.80;11.23;;;3.50;82.20;;;;;;5038237;28;20463;-82
2023/03/07 04:28:45;;;;;;;11.90;10.50;;;3.50;82.10;;;;;;5037885;28;20264;-83
2023/03/07 04:31:15;;;;;;;13.93;10.80;;;3.60;80.60;;;;;;5038738;28;20189;-83
2023/03/07 04:33:41;;;;;;;12.07;10.77;;;3.60;81.90;;;;;;5038219;28;20184;-82
2023/03/07 04:36:07;;;;;;;15.27;11.50;;;3.50;81.50;;;;;;5021408;28;20176;-82
2023/03/07 04:38:33;;;;;;;14.10;10.23;;;3.50;80.40;;;;;;5022732;28;20201;-83
2023/03/07 04:40:59;;;;;;;14.30;10.37;;;3.60;79.40;;;;;;5030370;28;20193;-82
2023/03/07 04:43:24;;;;;;;13.77;10.77;;;3.60;78.20;;;;;;5019726;28;20177;-81
2023/03/07 04:45:52;;;;;;;13.10;11.13;;;3.60;78.80;;;;;;5018588;28;20177;-83
2023/03/07 04:48:17;;;;;;;15.20;11.43;;;3.60;79.20;;;;;;5020325;28;20323;-82
2023/03/07 04:50:43;;;;;;;12.97;11.07;;;3.70;78.50;;;;;;5019881;28;20625;-83
2023/03/07 04:53:08;;;;;;;15.77;10.40;;;3.60;78.80;;;;;;5018991;28;20209;-81
2023/03/07 04:55:34;;;;;;;12.30;10.70;;;3.60;77.40;;;;;;5019727;28;20178;-82
2023/03/07 04:58:00;;;;;;;14.27;10.63;;;3.70;77.50;;;;;;5018854;28;20630;-83
2023/03/07 05:00:25;;;;;;;13.47;11.37;;;3.80;76.20;;;;;;5002093;28;20181;-82
2023/03/07 05:02:55;;;;;;;14.27;11.67;;;3.80;76.40;;;;;;5016887;28;20268;-84
2023/03/07 05:05:21;;;;;;;12.27;10.53;;;3.70;76.30;;;;;;5017722;28;20205;-82
2023/03/07 05:07:46;;;;;;;11.80;10.53;;;3.70;76.30;;;;;;5017877;28;20205;-82
2023/03/07 05:10:12;;;;;;;15.03;10.83;;;3.80;76.10;;;;;;5018034;28;20283;-80
2023/03/07 05:12:37;;;;;;;12.87;10.53;;;3.80;75.60;;;;;;5018729;28;20698;-83
2023/03/07 05:15:03;;;;;;;13.50;10.73;;;3.80;75.60;;;;;;5017843;28;20208;-81
2023/03/07 05:17:30;;;;;;;13.23;11.10;;;3.70;77.10;;;;;;5018493;28;20964;-82
2023/03/07 05:19:56;;;;;;;12.03;10.73;;;3.70;77.00;;;;;;5017292;28;20693;-81
2023/03/07 05:22:22;;;;;;;13.83;11.23;;;3.70;76.00;;;;;;5035450;28;20184;-81
2023/03/07 05:24:47;;;;;;;13.00;10.27;;;3.80;76.10;;;;;;5036885;28;20562;-83
2023/03/07 05:27:15;;;;;;;12.70;10.67;;;3.80;76.20;;;;;;5019186;28;20411;-84
2023/03/07 05:29:40;;;;;;;11.73;9.80;;;3.80;76.80;;;;;;5016796;28;20186;-82
2023/03/07 05:32:06;;;;;;;13.00;11.00;;;3.70;76.10;;;;;;5017357;28;20260;-82
2023/03/07 05:34:32;;;;;;;11.50;10.30;;;3.80;76.10;;;;;;5037882;28;20185;-79
2023/03/07 05:36:57;;;;;;;12.17;10.83;;;3.70;76.20;;;;;;5037900;28;20208;-81
2023/03/07 05:39:24;;;;;;;15.83;11.10;;;3.80;76.60;;;;;;5039017;28;20260;-82
2023/03/07 05:41:49;;;;;;;12.57;9.90;;;3.70;75.90;;;;;;5038872;28;20185;-83
2023/03/07 05:44:15;;;;;;;14.03;11.57;;;3.80;75.60;;;;;;5019959;28;20192;-83
2023/03/07 05:46:41;;;;;;;12.60;10.87;;;3.80;75.70;;;;;;5038060;28;20214;-81
2023/03/07 05:49:07;;;;;;;11.93;10.63;;;3.90;75.50;;;;;;5038674;28;20203;-82
2023/03/07 05:51:33;;;;;;;11.80;10.43;;;3.80;75.70;;;;;;5038628;28;20193;-81
2023/03/07 05:53:58;;;;;;;14.20;10.37;;;3.80;75.10;;;;;;5038410;28;20639;-83
2023/03/07 05:56:24;;;;;;;13.50;10.87;;;3.80;74.60;;;;;;5038336;28;20169;-82
2023/03/07 05:58:49;;;;;;;13.67;10.70;;;3.80;75.00;;;;;;5040204;28;20198;-82
2023/03/07 06:01:15;;;;;;;12.60;10.30;;;3.90;74.40;;;;;;5020750;28;20185;-83
2023/03/07 06:03:42;;;;;;;11.50;9.87;;;3.90;74.50;;;;;;5037669;28;20177;-83
2023/03/07 06:06:08;;;;;;;13.33;9.87;;;3.90;74.80;;;;;;5018569;28;20191;-80
2023/03/07 06:08:34;;;;;;;12.90;10.03;;;3.90;74.40;;;;;;5035104;28;20216;-82
2023/03/07 06:10:59;;;;;;;12.70;10.37;;;3.90;74.70;;;;;;5034693;28;20181;-83
2023/03/07 06:13:25;;;;;;;13.97;10.00;;;3.90;74.50;;;;;;5036193;28;20236;-82
2023/03/07 06:15:54;;;;;;;12.30;9.30;;;3.90;73.00;;;;;;5036716;28;20188;-82
2023/03/07 06:18:21;;;;;;;12.87;10.37;;;3.90;74.00;;;;;;5035701;28;20698;-82
2023/03/07 06:21:14;;;;;;;13.53;10.33;;;3.90;73.80;;;;;;5036161;28;20189;-83
2023/03/07 06:23:40;;;;;;;10.50;9.40;;;4.00;72.80;;;;;;5034144;28;20189;-80
2023/03/07 06:26:07;;;;;;;13.30;10.77;;;4.00;72.90;;;;;;5035816;28;20539;-81
2023/03/07 06:28:33;;;;;;;12.30;10.43;;;4.00;72.60;;;;;;5043353;28;20204;-82
2023/03/07 06:30:59;;;;;;;12.27;9.33;;;4.00;73.20;;;;;;5048388;28;20180;-83
2023/03/07 06:33:25;;;;;;;13.10;9.40;;;4.00;72.50;;;;;;5036896;28;20181;-82
2023/03/07 06:35:51;;;;;;;14.17;10.63;;;4.00;72.30;;;;;;5036424;28;20217;-82
2023/03/07 06:38:17;;;;;;;11.47;10.10;;;4.10;72.10;;;;;;5035870;28;20207;-83
2023/03/07 06:40:43;;;;;;;13.80;10.07;;;4.10;71.90;;;;;;5036747;28;20260;-82
2023/03/07 06:43:11;;;;;;;13.33;10.30;;;4.00;71.60;;;;;;5036982;28;20741;-84
2023/03/07 06:45:36;;;;;;;13.17;9.63;;;4.10;71.90;;;;;;5037014;28;20185;-83
2023/03/07 06:48:02;;;;;;;12.47;10.40;;;4.00;72.60;;;;;;5036278;28;20211;-81
2023/03/07 06:50:28;;;;;;;12.13;10.27;;;4.10;72.30;;;;;;5036875;28;20189;-80
2023/03/07 06:52:54;;;;;;;12.53;9.93;;;4.10;72.20;;;;;;5019091;28;20209;-83
2023/03/07 06:55:19;;;;;;;14.37;9.43;;;4.10;72.00;;;;;;5036678;28;20181;-84
2023/03/07 06:57:45;;;;;;;11.03;9.83;;;4.10;71.30;;;;;;5017893;28;20213;-83
2023/03/07 07:00:12;;;;;;;12.17;9.73;;;4.20;71.50;;;;;;5036384;28;20280;-83
2023/03/07 07:02:38;;;;;;;11.17;9.53;;;4.10;71.40;;;;;;5035960;28;20181;-83
2023/03/07 07:05:04;;;;;;;13.13;10.00;;;4.20;71.00;;;;;;5035819;28;20191;-80
2023/03/07 07:07:30;;;;;;;10.40;8.80;;;4.20;71.40;;;;;;5035771;28;20651;-83
2023/03/07 07:09:56;;;;;;;11.13;9.83;;;4.20;71.50;;;;;;5036550;28;20193;-83
2023/03/07 07:12:21;;;;;;;12.87;10.43;;;4.20;71.60;;;;;;5018815;28;20208;-82
2023/03/07 07:14:47;;;;;;;14.03;9.87;;;4.40;70.50;;;;;;5036198;28;20232;-83
2023/03/07 07:17:13;;;;;;;12.73;9.80;;;4.40;70.10;;;;;;5036471;28;20238;-80
2023/03/07 07:19:38;;;;;;;11.00;9.20;;;4.30;71.10;;;;;;5037294;28;20707;-80
2023/03/07 07:22:07;;;;;;;13.00;10.17;;;4.40;69.40;;;;;;5038265;28;20193;-83
2023/03/07 07:24:33;;;;;;;11.17;9.57;;;4.40;71.10;;;;;;5039304;28;20611;-82
2023/03/07 07:26:58;;;;;;;11.13;8.70;;;4.30;71.10;;;;;;5046302;28;20193;-83
2023/03/07 07:29:24;;;;;;;11.27;9.27;;;4.40;70.20;;;;;;5032362;28;20584;-83
2023/03/07 07:31:50;;;;;;;12.53;10.23;;;4.40;70.50;;;;;;5037283;28;20197;-80
2023/03/07 07:34:16;;;;;;;11.47;9.33;;;4.40;70.30;;;;;;5025423;28;20188;-82
2023/03/07 07:36:41;;;;;;;12.23;9.30;;;4.50;69.70;;;;;;5016658;28;20802;-83
2023/03/07 07:39:07;;;;;;;12.17;10.27;;;4.40;69.90;;;;;;4999162;28;20230;-80
2023/03/07 07:41:33;;;;;;;17.20;10.10;;;4.40;70.20;;;;;;5015962;28;20177;-82
2023/03/07 07:43:59;;;;;;;10.93;9.47;;;4.50;70.00;;;;;;5015637;28;20692;-83
2023/03/07 07:46:27;;;;;;;10.37;8.53;;;4.50;68.80;;;;;;5016201;28;20174;-83
2023/03/07 07:48:53;;;;;;;10.63;9.53;;;4.50;69.90;;;;;;5017110;28;20189;-82
2023/03/07 07:51:19;;;;;;;10.60;9.50;;;4.70;68.90;;;;;;5017201;28;20197;-83
2023/03/07 07:53:44;;;;;;;12.27;9.33;;;4.70;68.30;;;;;;5015813;28;20174;-83
2023/03/07 07:56:10;;;;;;;12.20;9.17;;;4.60;69.30;;;;;;5016156;28;20210;-83
2023/03/07 07:58:36;;;;;;;10.50;9.37;;;4.70;69.00;;;;;;5015672;28;20281;-83
2023/03/07 08:01:12;;;;;;;10.27;8.50;;;4.90;68.40;;;;;;5015426;28;20180;-81
2023/03/07 08:03:38;;;;;;;12.87;8.67;;;4.90;67.20;;;;;;5015113;28;20170;-84
2023/03/07 08:06:04;;;;;;;11.57;9.60;;;4.90;68.10;;;;;;5016046;28;20189;-81
2023/03/07 08:08:29;;;;;;;10.17;8.63;;;4.80;69.20;;;;;;5016819;28;20209;-83
2023/03/07 08:10:55;;;;;;;11.70;9.90;;;4.90;67.80;;;;;;5041039;28;20177;-82
2023/03/07 08:13:20;;;;;;;10.23;8.67;;;5.00;67.00;;;;;;5050221;28;20239;-84
2023/03/07 08:15:46;;;;;;;11.57;9.00;;;5.00;66.00;;;;;;5047935;28;20170;-81
2023/03/07 08:18:12;;;;;;;10.13;8.63;;;4.90;65.90;;;;;;5042795;28;20201;-83
2023/03/07 08:20:40;;;;;;;13.37;9.47;;;4.90;67.00;;;;;;5038831;28;20254;-82
2023/03/07 08:23:05;;;;;;;10.30;9.20;;;4.90;68.30;;;;;;5053602;28;20195;-81
2023/03/07 08:25:31;;;;;;;11.33;9.43;;;4.90;66.50;;;;;;5034627;28;20280;-81
2023/03/07 08:27:57;;;;;;;10.07;8.93;;;4.90;67.10;;;;;;5028175;28;20198;-81
2023/03/07 08:30:25;;;;;;;12.17;8.73;;;5.00;66.60;;;;;;5032429;28;20196;-82
2023/03/07 08:32:53;;;;;;;13.23;8.77;;;5.00;66.60;;;;;;5013546;28;20250;-79
2023/03/07 08:35:19;;;;;;;10.53;8.60;;;5.10;65.60;;;;;;5029584;28;20177;-82
2023/03/07 08:37:47;;;;;;;11.43;9.93;;;5.00;66.80;;;;;;5025073;28;20194;-83
2023/03/07 08:40:15;;;;;;;10.50;8.97;;;4.90;66.70;;;;;;5020527;28;20606;-83
2023/03/07 08:42:41;;;;;;;11.03;9.57;;;5.00;67.50;;;;;;5004894;28;20186;-82
2023/03/07 08:45:07;;;;;;;10.70;8.87;;;5.00;67.50;;;;;;5033521;28;20170;-79
2023/03/07 08:47:33;;;;;;;14.47;9.47;;;5.10;66.90;;;;;;5005053;28;20208;-81
2023/03/07 08:49:59;;;;;;;19.70;9.80;;;5.10;67.30;;;;;;5018947;28;20245;-84
2023/03/07 08:52:24;;;;;;;12.87;9.97;;;5.20;67.40;;;;;;5018298;28;20205;-81
2023/03/07 08:54:50;;;;;;;10.77;9.67;;;5.20;66.80;;;;;;5018897;28;20182;-83
2023/03/07 08:57:16;;;;;;;12.60;9.70;;;5.00;68.00;;;;;;5019703;28;20178;-82
2023/03/07 08:59:41;;;;;;;12.83;9.37;;;5.10;67.90;;;;;;5019242;28;20185;-84
2023/03/07 09:02:11;;;;;;;12.87;9.47;;;5.00;67.90;;;;;;5019168;28;20722;-84
2023/03/07 09:04:37;;;;;;;10.83;9.73;;;4.90;68.70;;;;;;5001549;28;20174;-82
2023/03/07 09:07:03;;;;;;;14.80;9.73;;;4.90;69.00;;;;;;5019259;28;20205;-82
2023/03/07 09:09:30;;;;;;;12.03;9.07;;;4.80;69.20;;;;;;5022048;28;20252;-82
2023/03/07 09:11:56;;;;;;;11.97;9.40;;;5.00;68.60;;;;;;5039030;28;20205;-82
2023/03/07 09:14:22;;;;;;;13.47;9.33;;;5.20;68.20;;;;;;5038975;28;20176;-82
2023/03/07 09:16:47;;;;;;;10.43;9.40;;;5.30;68.70;;;;;;5038374;28;20180;-81
2023/03/07 09:19:13;;;;;;;9.77;8.47;;;5.20;68.70;;;;;;5043315;28;20213;-84
2023/03/07 09:21:39;;;;;;;10.83;9.73;;;5.30;66.90;;;;;;5041058;28;20192;-83
2023/03/07 09:24:05;;;;;;;15.67;10.00;;;5.30;68.10;;;;;;5040787;28;20177;-81
2023/03/07 09:26:31;;;;;;;13.77;9.57;;;5.20;68.50;;;;;;5040363;28;20184;-83
2023/03/07 09:28:57;;;;;;;12.43;9.50;;;5.30;68.00;;;;;;5040664;28;20260;-83
2023/03/07 09:31:23;;;;;;;10.57;9.30;;;5.30;67.70;;;;;;5040315;28;20201;-82
2023/03/07 09:33:48;;;;;;;12.73;9.90;;;5.30;66.90;;;;;;5040607;28;20733;-84
2023/03/07 09:36:16;;;;;;;13.37;8.77;;;5.40;66.60;;;;;;5022174;28;20243;-83
2023/03/07 09:38:41;;;;;;;10.90;9.00;;;5.50;65.60;;;;;;5039939;28;20267;-83
2023/03/07 09:41:47;;;;;;;11.80;8.97;;;5.40;66.20;;;;;;5040954;28;20177;-83
2023/03/07 09:44:33;;;;;;;10.47;8.47;;;5.30;66.70;;;;;;5041351;28;20165;-83
2023/03/07 09:47:09;;;;;;;10.33;9.20;;;5.50;65.40;;;;;;5040078;28;20647;-83
2023/03/07 09:49:48;;;;;;;9.33;7.93;;;5.40;65.70;;;;;;5041048;28;20673;-82
2023/03/07 09:52:17;;;;;;;11.10;8.67;;;5.50;64.70;;;;;;5039121;28;20897;-84
2023/03/07 09:54:49;;;;;;;12.37;8.80;;;5.50;64.90;;;;;;5038474;28;20208;-83
2023/03/07 09:57:28;;;;;;;10.77;8.67;;;5.50;64.20;;;;;;5037496;28;20240;-84
2023/03/07 10:00:18;;;;;;;8.67;7.77;;;5.60;63.40;;;;;;5038107;28;20241;-83
2023/03/07 10:03:20;;;;;;;10.13;7.93;;;5.70;63.70;;;;;;5037541;28;20158;-82
2023/03/07 10:05:51;;;;;;;9.83;7.83;;;5.60;63.40;;;;;;5038290;28;20193;-83
2023/03/07 10:08:32;;;;;;;10.57;7.97;;;5.60;62.40;;;;;;5019639;28;20235;-82
2023/03/07 10:11:09;;;;;;;10.87;8.83;;;5.60;63.30;;;;;;5037764;28;20172;-81
2023/03/07 10:13:59;;;;;;;9.33;8.33;;;5.50;62.00;;;;;;5038208;28;20222;-84
2023/03/07 10:16:35;;;;;;;13.83;7.73;;;5.40;61.40;;;;;;5038025;28;20199;-84
2023/03/07 10:19:28;;;;;;;10.50;7.80;;;5.40;61.80;;;;;;5025123;28;20209;-83
2023/03/07 10:22:29;;;;;;;10.03;8.67;;;5.50;61.50;;;;;;5033313;28;20643;-83
2023/03/07 10:25:06;;;;;;;8.97;8.07;;;5.70;61.20;;;;;;5038311;28;20177;-83
2023/03/07 10:27:32;;;;;;;16.43;9.30;;;5.60;60.20;;;;;;5037884;28;20283;-84
2023/03/07 10:30:00;;;;;;;11.33;8.33;;;5.80;60.80;;;;;;5038998;28;20962;-83
2023/03/07 10:32:38;;;;;;;9.43;8.40;;;5.90;59.10;;;;;;5037816;28;20599;-82
2023/03/07 10:35:10;;;;;;;10.03;8.30;;;6.10;59.10;;;;;;5036923;28;20169;-83
2023/03/07 10:37:55;;;;;;;8.93;7.87;;;6.30;59.50;;;;;;5037501;28;20224;-82
2023/03/07 10:40:44;;;;;;;9.50;8.27;;;6.30;58.20;;;;;;5036169;28;20169;-83
2023/03/07 10:43:21;;;;;;;11.13;8.77;;;6.50;58.10;;;;;;5025338;28;20200;-86
2023/03/07 10:45:46;;;;;;;11.07;8.27;;;6.40;56.00;;;;;;5037518;28;20169;-86
2023/03/07 10:48:17;;;;;;;10.33;9.13;;;6.40;56.70;;;;;;5037357;28;20227;-85
2023/03/07 10:51:04;;;;;;;10.03;8.30;;;6.40;55.90;;;;;;5037239;28;20206;-81
2023/03/07 10:53:33;;;;;;;11.77;8.33;;;6.40;56.30;;;;;;5036781;28;20234;-84
2023/03/07 10:56:10;;;;;;;10.13;9.13;;;6.50;57.30;;;;;;5037381;28;20196;-85
2023/03/07 10:58:35;;;;;;;11.40;8.67;;;6.50;55.50;;;;;;5048978;28;20765;-84
2023/03/07 11:01:01;;;;;;;10.03;8.40;;;6.50;56.50;;;;;;5039971;28;20176;-85
2023/03/07 11:03:30;;;;;;;10.27;8.07;;;6.30;55.80;;;;;;5035766;28;20185;-84
2023/03/07 11:05:56;;;;;;;11.60;8.37;;;6.40;55.30;;;;;;5036809;28;20196;-86
2023/03/07 11:08:31;;;;;;;9.37;8.33;;;6.40;55.60;;;;;;5037242;28;20219;-84
2023/03/07 11:10:58;;;;;;;8.53;7.63;;;6.30;54.40;;;;;;5020635;28;20203;-86
2023/03/07 11:13:25;;;;;;;10.63;8.37;;;6.20;54.20;;;;;;5038984;28;20201;-84
2023/03/07 11:15:51;;;;;;;10.33;7.90;;;6.30;53.80;;;;;;5020366;28;20204;-83
2023/03/07 11:18:37;;;;;;;9.37;7.60;;;6.50;53.90;;;;;;5019673;28;20205;-84
2023/03/07 11:21:03;;;;;;;10.73;7.73;;;6.70;51.70;;;;;;5003349;28;20196;-84
2023/03/07 11:23:30;;;;;;;9.03;7.40;;;6.50;51.40;;;;;;5032152;28;20197;-85
2023/03/07 11:26:20;;;;;;;9.13;7.73;;;6.50;53.60;;;;;;5016315;28;20200;-86
2023/03/07 11:28:46;;;;;;;9.27;7.70;;;6.40;52.80;;;;;;5028852;28;20296;-85
2023/03/07 11:31:27;;;;;;;10.63;8.00;;;6.30;52.10;;;;;;5018363;28;20197;-85
2023/03/07 11:34:05;;;;;;;8.80;7.87;;;6.50;51.90;;;;;;5017702;28;20165;-83
2023/03/07 11:36:34;;;;;;;9.13;7.57;;;6.50;52.30;;;;;;5016344;28;20253;-85
2023/03/07 11:39:28;;;;;;;10.17;8.00;;;6.60;53.30;;;;;;5016527;28;20196;-84
2023/03/07 11:42:03;;;;;;;8.60;7.30;;;6.80;52.80;;;;;;5028672;28;20161;-86
2023/03/07 11:44:37;;;;;;;10.70;7.30;;;6.90;50.30;;;;;;5035898;28;20181;-85
2023/03/07 11:47:15;;;;;;;9.57;7.47;;;6.90;50.60;;;;;;5034353;28;20172;-85
2023/03/07 11:50:03;;;;;;;10.73;7.57;;;6.90;49.80;;;;;;5027699;28;20176;-83
2023/03/07 11:52:46;;;;;;;8.67;6.50;;;7.20;49.50;;;;;;5024811;28;20207;-81
2023/03/07 11:55:28;;;;;;;8.67;7.77;;;7.10;49.60;;;;;;5004641;28;20174;-83
2023/03/07 11:58:16;;;;;;;8.23;7.30;;;7.10;49.00;;;;;;5021618;28;20194;-82
2023/03/07 12:01:03;;;;;;;8.37;6.93;;;7.10;49.80;;;;;;5020743;28;20193;-86
2023/03/07 12:03:56;;;;;;;9.33;7.70;;;7.00;51.30;;;;;;5021168;28;20189;-84
2023/03/07 12:06:52;;;;;;;8.57;7.37;;;7.20;51.10;;;;;;5021911;28;20166;-82
2023/03/07 12:09:41;;;;;;;10.03;8.00;;;7.50;49.40;;;;;;5040127;28;20304;-84
2023/03/07 12:12:43;;;;;;;9.17;7.30;;;7.50;49.00;;;;;;5042444;28;20304;-85
2023/03/07 12:15:39;;;;;;;10.00;6.87;;;7.30;50.20;;;;;;5041926;28;20176;-81
2023/03/07 12:18:13;;;;;;;9.50;7.33;;;7.20;50.10;;;;;;5042362;28;20288;-84
2023/03/07 12:20:57;;;;;;;11.43;7.67;;;7.20;50.50;;;;;;5041697;28;20207;-84
2023/03/07 12:23:36;;;;;;;8.60;7.67;;;7.00;50.30;;;;;;5043190;28;20169;-86
2023/03/07 12:26:32;;;;;;;8.77;7.07;;;6.80;52.10;;;;;;5043739;28;20177;-85
2023/03/07 12:29:08;;;;;;;9.93;7.70;;;6.70;51.90;;;;;;5025270;28;20204;-83
2023/03/07 12:31:42;;;;;;;8.20;7.40;;;6.80;51.00;;;;;;5043238;28;20196;-83
2023/03/07 12:34:10;;;;;;;9.37;7.77;;;6.70;52.10;;;;;;5041421;28;20239;-84
2023/03/07 12:36:51;;;;;;;8.90;7.03;;;6.80;50.80;;;;;;5042535;28;20173;-84
2023/03/07 12:39:51;;;;;;;8.33;7.40;;;6.70;51.10;;;;;;5042132;28;20201;-85
2023/03/07 12:42:38;;;;;;;8.83;7.43;;;6.80;51.00;;;;;;5042379;28;20204;-86
2023/03/07 12:45:11;;;;;;;9.23;7.30;;;6.80;53.00;;;;;;5041101;28;20233;-84
2023/03/07 12:47:56;;;;;;;9.37;6.37;;;6.90;51.90;;;;;;5041383;28;20254;-84
2023/03/07 12:50:35;;;;;;;8.70;7.20;;;6.90;50.70;;;;;;5023701;28;20517;-83
2023/03/07 12:53:03;;;;;;;8.67;6.63;;;6.90;51.10;;;;;;5041024;28;20217;-85
2023/03/07 12:55:48;;;;;;;8.37;7.20;;;7.10;51.40;;;;;;5041201;28;20189;-85